sensor_id;sensor_type;location;lat;lon;timestamp;pressure;altitude;pressure_sealevel;temperature;humidity
53715;BME280;39608;55.630;37.864;2023-02-22T00:02:30;98094.03;;;-13.80;58.73
53715;BME280;39608;55.630;37.864;2023-02-22T00:07:35;98106.94;;;-13.87;59.14
53715;BME280;39608;55.630;37.864;2023-02-22T00:12:37;98117.06;;;-13.92;59.05
53715;BME280;39608;55.630;37.864;2023-02-22T00:17:39;98126.34;;;-13.89;58.87
53715;BME280;39608;55.630;37.864;2023-02-22T00:22:43;98123.47;;;-13.95;59.16
53715;BME280;39608;55.630;37.864;2023-02-22T00:27:46;98130.47;;;-14.03;58.62
53715;BME280;39608;55.630;37.864;2023-02-22T00:32:49;98150.88;;;-14.07;59.26
53715;BME280;39608;55.630;37.864;2023-02-22T00:37:54;98161.59;;;-14.10;59.42
53715;BME280;39608;55.630;37.864;2023-02-22T00:42:56;98164.56;;;-14.13;59.14
53715;BME280;39608;55.630;37.864;2023-02-22T00:48:00;98162.16;;;-14.23;59.24
53715;BME280;39608;55.630;37.864;2023-02-22T00:53:04;98159.22;;;-14.20;59.03
53715;BME280;39608;55.630;37.864;2023-02-22T00:58:07;98168.06;;;-14.29;59.11
53715;BME280;39608;55.630;37.864;2023-02-22T01:03:11;98179.94;;;-14.26;59.20
53715;BME280;39608;55.630;37.864;2023-02-22T01:08:16;98184.47;;;-14.29;59.20
53715;BME280;39608;55.630;37.864;2023-02-22T01:13:18;98174.44;;;-14.40;59.42
53715;BME280;39608;55.630;37.864;2023-02-22T01:18:20;98203.38;;;-14.35;59.09
53715;BME280;39608;55.630;37.864;2023-02-22T01:23:24;98213.47;;;-14.32;59.38
53715;BME280;39608;55.630;37.864;2023-02-22T01:28:26;98211.50;;;-14.30;59.29
53715;BME280;39608;55.630;37.864;2023-02-22T01:33:28;98216.56;;;-14.28;59.45
53715;BME280;39608;55.630;37.864;2023-02-22T01:38:32;98210.22;;;-14.34;59.34
53715;BME280;39608;55.630;37.864;2023-02-22T01:43:34;98197.41;;;-14.52;59.68
53715;BME280;39608;55.630;37.864;2023-02-22T01:48:40;98225.88;;;-14.42;59.36
53715;BME280;39608;55.630;37.864;2023-02-22T01:53:47;98206.22;;;-14.61;59.42
53715;BME280;39608;55.630;37.864;2023-02-22T01:58:55;98214.06;;;-14.69;59.47
53715;BME280;39608;55.630;37.864;2023-02-22T02:04:03;98241.19;;;-14.55;59.44
53715;BME280;39608;55.630;37.864;2023-02-22T02:09:13;98249.66;;;-14.53;59.46
53715;BME280;39608;55.630;37.864;2023-02-22T02:14:18;98253.84;;;-14.52;59.56
53715;BME280;39608;55.630;37.864;2023-02-22T02:19:30;98249.94;;;-14.56;59.41
53715;BME280;39608;55.630;37.864;2023-02-22T02:36:00;98278.13;;;-14.60;59.53
53715;BME280;39608;55.630;37.864;2023-02-22T02:41:07;98286.28;;;-14.63;59.76
53715;BME280;39608;55.630;37.864;2023-02-22T02:46:13;98278.66;;;-14.73;59.54
53715;BME280;39608;55.630;37.864;2023-02-22T02:51:21;98304.97;;;-14.68;59.77
53715;BME280;39608;55.630;37.864;2023-02-22T02:56:23;98309.50;;;-14.61;59.41
53715;BME280;39608;55.630;37.864;2023-02-22T03:01:40;98311.47;;;-14.64;59.60
53715;BME280;39608;55.630;37.864;2023-02-22T03:07:16;98310.50;;;-14.63;59.50
53715;BME280;39608;55.630;37.864;2023-02-22T03:12:25;98317.00;;;-14.67;59.67
53715;BME280;39608;55.630;37.864;2023-02-22T03:17:42;98322.03;;;-14.73;59.76
53715;BME280;39608;55.630;37.864;2023-02-22T03:22:54;98319.94;;;-14.78;59.56
53715;BME280;39608;55.630;37.864;2023-02-22T03:28:00;98328.88;;;-14.81;59.85
53715;BME280;39608;55.630;37.864;2023-02-22T03:33:06;98324.16;;;-14.85;59.73
53715;BME280;39608;55.630;37.864;2023-02-22T03:38:15;98346.44;;;-14.74;59.82
53715;BME280;39608;55.630;37.864;2023-02-22T03:43:22;98363.22;;;-14.77;59.95
53715;BME280;39608;55.630;37.864;2023-02-22T03:48:30;98356.69;;;-14.81;59.84
53715;BME280;39608;55.630;37.864;2023-02-22T03:53:38;98365.97;;;-14.78;59.64
53715;BME280;39608;55.630;37.864;2023-02-22T03:58:41;98383.34;;;-14.79;59.95
53715;BME280;39608;55.630;37.864;2023-02-22T04:03:45;98371.47;;;-14.82;60.08
53715;BME280;39608;55.630;37.864;2023-02-22T04:08:48;98381.25;;;-14.75;59.80
53715;BME280;39608;55.630;37.864;2023-02-22T04:13:50;98385.31;;;-14.73;60.14
53715;BME280;39608;55.630;37.864;2023-02-22T04:18:54;98388.72;;;-14.72;59.69
53715;BME280;39608;55.630;37.864;2023-02-22T04:23:57;98410.03;;;-14.69;59.66
53715;BME280;39608;55.630;37.864;2023-02-22T04:28:59;98398.00;;;-14.70;59.64
53715;BME280;39608;55.630;37.864;2023-02-22T04:34:01;98412.16;;;-14.72;59.87
53715;BME280;39608;55.630;37.864;2023-02-22T04:39:05;98415.88;;;-14.75;60.12
53715;BME280;39608;55.630;37.864;2023-02-22T04:44:07;98423.34;;;-14.80;59.87
53715;BME280;39608;55.630;37.864;2023-02-22T04:49:09;98425.50;;;-14.75;59.81
53715;BME280;39608;55.630;37.864;2023-02-22T04:54:12;98421.41;;;-14.78;60.30
53715;BME280;39608;55.630;37.864;2023-02-22T04:59:16;98450.03;;;-14.78;59.72
53715;BME280;39608;55.630;37.864;2023-02-22T05:04:19;98450.66;;;-14.76;59.93
53715;BME280;39608;55.630;37.864;2023-02-22T05:09:22;98448.22;;;-14.77;59.89
53715;BME280;39608;55.630;37.864;2023-02-22T05:14:24;98468.59;;;-14.73;60.14
53715;BME280;39608;55.630;37.864;2023-02-22T05:19:27;98453.59;;;-14.79;59.86
53715;BME280;39608;55.630;37.864;2023-02-22T05:24:32;98459.28;;;-14.84;60.06
53715;BME280;39608;55.630;37.864;2023-02-22T05:29:34;98471.78;;;-14.87;59.86
53715;BME280;39608;55.630;37.864;2023-02-22T05:34:38;98477.16;;;-14.89;59.82
53715;BME280;39608;55.630;37.864;2023-02-22T05:39:43;98489.53;;;-14.83;59.78
53715;BME280;39608;55.630;37.864;2023-02-22T05:44:46;98501.59;;;-14.73;59.93
53715;BME280;39608;55.630;37.864;2023-02-22T05:49:47;98498.03;;;-14.72;59.93
53715;BME280;39608;55.630;37.864;2023-02-22T05:54:51;98485.50;;;-14.69;59.83
53715;BME280;39608;55.630;37.864;2023-02-22T05:59:53;98502.41;;;-14.65;59.58
53715;BME280;39608;55.630;37.864;2023-02-22T06:04:57;98505.34;;;-14.59;59.38
53715;BME280;39608;55.630;37.864;2023-02-22T06:10:00;98512.53;;;-14.53;59.63
53715;BME280;39608;55.630;37.864;2023-02-22T06:15:03;98503.41;;;-14.57;59.46
53715;BME280;39608;55.630;37.864;2023-02-22T06:20:06;98504.84;;;-14.55;59.31
53715;BME280;39608;55.630;37.864;2023-02-22T06:25:12;98505.84;;;-14.64;59.62
53715;BME280;39608;55.630;37.864;2023-02-22T06:30:17;98496.56;;;-14.58;59.29
53715;BME280;39608;55.630;37.864;2023-02-22T06:35:20;98521.16;;;-14.44;59.61
53715;BME280;39608;55.630;37.864;2023-02-22T06:40:25;98522.66;;;-14.42;59.49
53715;BME280;39608;55.630;37.864;2023-02-22T06:45:50;98536.50;;;-14.33;59.27
53715;BME280;39608;55.630;37.864;2023-02-22T06:50:53;98541.38;;;-14.30;59.52
53715;BME280;39608;55.630;37.864;2023-02-22T06:55:56;98538.16;;;-14.24;59.26
53715;BME280;39608;55.630;37.864;2023-02-22T07:00:58;98541.56;;;-14.23;59.19
53715;BME280;39608;55.630;37.864;2023-02-22T07:06:03;98552.97;;;-14.08;59.37
53715;BME280;39608;55.630;37.864;2023-02-22T07:11:06;98556.56;;;-13.92;59.09
53715;BME280;39608;55.630;37.864;2023-02-22T07:16:08;98561.16;;;-13.95;59.29
53715;BME280;39608;55.630;37.864;2023-02-22T07:21:10;98564.06;;;-13.89;59.17
53715;BME280;39608;55.630;37.864;2023-02-22T07:26:14;98566.06;;;-13.75;59.00
53715;BME280;39608;55.630;37.864;2023-02-22T07:31:16;98574.53;;;-13.56;59.12
53715;BME280;39608;55.630;37.864;2023-02-22T07:36:18;98575.81;;;-13.52;58.95
53715;BME280;39608;55.630;37.864;2023-02-22T07:41:22;98579.75;;;-13.40;58.72
53715;BME280;39608;55.630;37.864;2023-02-22T07:46:24;98585.56;;;-13.30;58.68
53715;BME280;39608;55.630;37.864;2023-02-22T07:51:26;98588.97;;;-13.21;59.22
53715;BME280;39608;55.630;37.864;2023-02-22T07:56:30;98609.66;;;-13.11;58.93
53715;BME280;39608;55.630;37.864;2023-02-22T08:01:34;98607.72;;;-13.01;58.66
53715;BME280;39608;55.630;37.864;2023-02-22T08:06:37;98609.81;;;-12.96;59.13
53715;BME280;39608;55.630;37.864;2023-02-22T08:11:40;98601.31;;;-12.90;58.99
53715;BME280;39608;55.630;37.864;2023-02-22T08:16:42;98609.63;;;-12.86;58.89
53715;BME280;39608;55.630;37.864;2023-02-22T08:21:44;98608.78;;;-12.79;58.98
53715;BME280;39608;55.630;37.864;2023-02-22T08:26:47;98632.25;;;-12.70;58.51
53715;BME280;39608;55.630;37.864;2023-02-22T08:31:50;98632.75;;;-12.67;58.81
53715;BME280;39608;55.630;37.864;2023-02-22T08:36:53;98651.31;;;-12.62;58.66
53715;BME280;39608;55.630;37.864;2023-02-22T08:41:56;98649.34;;;-12.43;58.13
53715;BME280;39608;55.630;37.864;2023-02-22T08:46:58;98661.09;;;-12.39;58.40
53715;BME280;39608;55.630;37.864;2023-02-22T08:52:00;98670.03;;;-12.33;58.11
53715;BME280;39608;55.630;37.864;2023-02-22T08:57:04;98665.59;;;-12.25;58.02
53715;BME280;39608;55.630;37.864;2023-02-22T09:02:13;98666.56;;;-12.26;57.58
53715;BME280;39608;55.630;37.864;2023-02-22T09:07:17;98678.13;;;-12.12;57.98
53715;BME280;39608;55.630;37.864;2023-02-22T09:12:20;98681.47;;;-11.95;57.80
53715;BME280;39608;55.630;37.864;2023-02-22T09:17:22;98684.13;;;-11.72;57.47
53715;BME280;39608;55.630;37.864;2023-02-22T09:22:24;98693.59;;;-11.71;57.72
53715;BME280;39608;55.630;37.864;2023-02-22T09:27:28;98684.59;;;-11.68;57.62
53715;BME280;39608;55.630;37.864;2023-02-22T09:32:30;98691.94;;;-11.63;57.55
53715;BME280;39608;55.630;37.864;2023-02-22T09:37:32;98678.69;;;-11.62;57.59
53715;BME280;39608;55.630;37.864;2023-02-22T09:42:38;98692.88;;;-11.56;57.56
53715;BME280;39608;55.630;37.864;2023-02-22T09:47:46;98690.19;;;-11.48;57.23
53715;BME280;39608;55.630;37.864;2023-02-22T09:52:55;98704.34;;;-11.34;56.82
53715;BME280;39608;55.630;37.864;2023-02-22T09:58:06;98684.91;;;-11.40;57.33
53715;BME280;39608;55.630;37.864;2023-02-22T10:03:20;98693.56;;;-11.39;57.33
53715;BME280;39608;55.630;37.864;2023-02-22T10:08:27;98692.28;;;-11.43;57.05
53715;BME280;39608;55.630;37.864;2023-02-22T10:13:38;98701.25;;;-11.38;56.72
53715;BME280;39608;55.630;37.864;2023-02-22T10:24:33;98714.47;;;-11.31;55.70
53715;BME280;39608;55.630;37.864;2023-02-22T10:29:41;98721.72;;;-11.18;56.97
53715;BME280;39608;55.630;37.864;2023-02-22T10:34:46;98708.59;;;-11.10;57.05
53715;BME280;39608;55.630;37.864;2023-02-22T10:39:50;98708.16;;;-10.98;56.63
53715;BME280;39608;55.630;37.864;2023-02-22T10:44:58;98719.69;;;-10.85;55.64
53715;BME280;39608;55.630;37.864;2023-02-22T10:50:00;98709.84;;;-10.82;56.19
53715;BME280;39608;55.630;37.864;2023-02-22T10:55:04;98728.16;;;-10.59;56.28
53715;BME280;39608;55.630;37.864;2023-02-22T11:00:23;98728.09;;;-10.36;56.47
53715;BME280;39608;55.630;37.864;2023-02-22T11:05:33;98735.31;;;-10.23;56.11
53715;BME280;39608;55.630;37.864;2023-02-22T11:10:36;98741.44;;;-10.31;55.50
53715;BME280;39608;55.630;37.864;2023-02-22T11:15:40;98738.28;;;-10.41;55.35
53715;BME280;39608;55.630;37.864;2023-02-22T11:20:43;98741.28;;;-10.29;55.72
53715;BME280;39608;55.630;37.864;2023-02-22T11:25:46;98748.53;;;-10.17;55.83
53715;BME280;39608;55.630;37.864;2023-02-22T11:30:50;98750.13;;;-10.16;55.86
53715;BME280;39608;55.630;37.864;2023-02-22T11:35:54;98719.34;;;-10.43;56.35
53715;BME280;39608;55.630;37.864;2023-02-22T11:41:11;98755.72;;;-10.19;55.21
53715;BME280;39608;55.630;37.864;2023-02-22T11:46:20;98771.22;;;-10.24;55.34
53715;BME280;39608;55.630;37.864;2023-02-22T11:51:35;98775.44;;;-10.23;55.30
53715;BME280;39608;55.630;37.864;2023-02-22T11:56:43;98777.88;;;-10.21;55.82
53715;BME280;39608;55.630;37.864;2023-02-22T12:01:51;98774.09;;;-10.19;55.41
53715;BME280;39608;55.630;37.864;2023-02-22T12:07:06;98776.53;;;-10.17;55.38
53715;BME280;39608;55.630;37.864;2023-02-22T12:12:19;98776.44;;;-10.24;55.33
53715;BME280;39608;55.630;37.864;2023-02-22T12:17:34;98793.34;;;-10.11;55.55
53715;BME280;39608;55.630;37.864;2023-02-22T12:22:51;98803.25;;;-9.99;55.00
53715;BME280;39608;55.630;37.864;2023-02-22T12:27:56;98814.44;;;-10.05;54.95
53715;BME280;39608;55.630;37.864;2023-02-22T12:33:04;98811.44;;;-10.17;55.14
53715;BME280;39608;55.630;37.864;2023-02-22T12:38:13;98829.44;;;-10.13;55.50
53715;BME280;39608;55.630;37.864;2023-02-22T12:43:23;98839.19;;;-10.07;54.96
53715;BME280;39608;55.630;37.864;2023-02-22T12:48:35;98837.66;;;-10.02;54.99
53715;BME280;39608;55.630;37.864;2023-02-22T12:53:40;98849.94;;;-10.17;54.54
53715;BME280;39608;55.630;37.864;2023-02-22T12:58:50;98859.69;;;-10.26;54.20
53715;BME280;39608;55.630;37.864;2023-02-22T13:03:56;98868.81;;;-10.22;55.00
53715;BME280;39608;55.630;37.864;2023-02-22T13:09:08;98851.75;;;-10.18;54.80
53715;BME280;39608;55.630;37.864;2023-02-22T13:14:38;98873.34;;;-10.16;54.39
53715;BME280;39608;55.630;37.864;2023-02-22T13:19:47;98856.38;;;-10.20;54.73
53715;BME280;39608;55.630;37.864;2023-02-22T13:25:00;98876.03;;;-10.01;55.03
53715;BME280;39608;55.630;37.864;2023-02-22T13:30:12;98879.50;;;-9.70;54.60
53715;BME280;39608;55.630;37.864;2023-02-22T13:35:35;98875.78;;;-9.01;54.02
53715;BME280;39608;55.630;37.864;2023-02-22T13:41:08;98894.94;;;-8.49;53.72
53715;BME280;39608;55.630;37.864;2023-02-22T13:52:09;98878.97;;;-9.06;52.87
53715;BME280;39608;55.630;37.864;2023-02-22T13:57:20;98867.69;;;-9.51;53.80
53715;BME280;39608;55.630;37.864;2023-02-22T14:02:31;98901.13;;;-9.68;53.97
53715;BME280;39608;55.630;37.864;2023-02-22T14:07:55;98896.13;;;-9.93;53.75
53715;BME280;39608;55.630;37.864;2023-02-22T14:13:03;98854.31;;;-10.33;53.05
53715;BME280;39608;55.630;37.864;2023-02-22T14:18:15;98895.59;;;-10.11;54.20
53715;BME280;39608;55.630;37.864;2023-02-22T14:23:33;98863.09;;;-10.40;54.16
53715;BME280;39608;55.630;37.864;2023-02-22T14:28:49;98910.06;;;-10.16;54.50
53715;BME280;39608;55.630;37.864;2023-02-22T14:34:08;98914.06;;;-10.20;54.57
53715;BME280;39608;55.630;37.864;2023-02-22T14:39:19;98920.72;;;-10.17;54.42
53715;BME280;39608;55.630;37.864;2023-02-22T14:44:26;98930.75;;;-10.21;54.79
53715;BME280;39608;55.630;37.864;2023-02-22T14:49:36;98933.75;;;-10.24;54.58
53715;BME280;39608;55.630;37.864;2023-02-22T14:54:51;98929.94;;;-10.21;54.61
53715;BME280;39608;55.630;37.864;2023-02-22T15:00:05;98918.31;;;-10.42;54.49
53715;BME280;39608;55.630;37.864;2023-02-22T15:05:19;98939.97;;;-10.25;54.64
53715;BME280;39608;55.630;37.864;2023-02-22T15:10:26;98945.22;;;-10.25;54.96
53715;BME280;39608;55.630;37.864;2023-02-22T15:15:30;98945.56;;;-10.28;54.66
53715;BME280;39608;55.630;37.864;2023-02-22T15:20:34;98946.19;;;-10.26;54.80
53715;BME280;39608;55.630;37.864;2023-02-22T15:25:39;98958.31;;;-10.25;55.08
53715;BME280;39608;55.630;37.864;2023-02-22T15:30:41;98961.78;;;-10.33;54.77
53715;BME280;39608;55.630;37.864;2023-02-22T15:35:43;98967.34;;;-10.27;55.08
53715;BME280;39608;55.630;37.864;2023-02-22T15:40:58;98979.59;;;-10.20;55.22
53715;BME280;39608;55.630;37.864;2023-02-22T15:46:00;98984.19;;;-10.22;55.14
53715;BME280;39608;55.630;37.864;2023-02-22T15:51:06;98985.81;;;-10.21;55.12
53715;BME280;39608;55.630;37.864;2023-02-22T15:56:14;98969.97;;;-10.27;55.42
53715;BME280;39608;55.630;37.864;2023-02-22T16:01:18;98982.88;;;-10.26;55.47
53715;BME280;39608;55.630;37.864;2023-02-22T16:06:26;98977.34;;;-10.31;55.60
53715;BME280;39608;55.630;37.864;2023-02-22T16:11:33;98986.84;;;-10.30;55.66
53715;BME280;39608;55.630;37.864;2023-02-22T16:16:38;98986.75;;;-10.37;55.59
53715;BME280;39608;55.630;37.864;2023-02-22T16:21:51;99006.66;;;-10.27;55.65
53715;BME280;39608;55.630;37.864;2023-02-22T16:27:05;98996.88;;;-10.34;55.54
53715;BME280;39608;55.630;37.864;2023-02-22T16:32:07;99006.47;;;-10.26;55.66
53715;BME280;39608;55.630;37.864;2023-02-22T16:37:20;98994.66;;;-10.22;55.98
53715;BME280;39608;55.630;37.864;2023-02-22T16:42:25;99031.72;;;-10.25;55.65
53715;BME280;39608;55.630;37.864;2023-02-22T16:47:27;99016.78;;;-10.24;55.87
53715;BME280;39608;55.630;37.864;2023-02-22T16:52:30;99025.50;;;-10.24;55.63
53715;BME280;39608;55.630;37.864;2023-02-22T16:57:33;99039.75;;;-10.26;55.77
53715;BME280;39608;55.630;37.864;2023-02-22T17:02:36;99036.13;;;-10.25;55.78
53715;BME280;39608;55.630;37.864;2023-02-22T17:07:38;99038.63;;;-10.32;55.84
53715;BME280;39608;55.630;37.864;2023-02-22T17:12:44;99041.84;;;-10.22;56.08
53715;BME280;39608;55.630;37.864;2023-02-22T17:17:47;99030.94;;;-10.34;56.23
53715;BME280;39608;55.630;37.864;2023-02-22T17:22:50;99038.47;;;-10.30;55.82
53715;BME280;39608;55.630;37.864;2023-02-22T17:27:53;99048.13;;;-10.31;55.86
53715;BME280;39608;55.630;37.864;2023-02-22T17:32:58;99060.91;;;-10.28;55.88
53715;BME280;39608;55.630;37.864;2023-02-22T17:38:03;99070.38;;;-10.27;56.01
53715;BME280;39608;55.630;37.864;2023-02-22T17:43:10;99065.47;;;-10.30;56.19
53715;BME280;39608;55.630;37.864;2023-02-22T17:48:13;99065.13;;;-10.27;55.99
53715;BME280;39608;55.630;37.864;2023-02-22T17:53:17;99076.28;;;-10.25;55.95
53715;BME280;39608;55.630;37.864;2023-02-22T17:58:22;99070.56;;;-10.28;56.31
53715;BME280;39608;55.630;37.864;2023-02-22T18:03:29;99080.41;;;-10.30;55.78
53715;BME280;39608;55.630;37.864;2023-02-22T18:08:31;99083.84;;;-10.30;56.05
53715;BME280;39608;55.630;37.864;2023-02-22T18:13:35;99082.19;;;-10.31;56.05
53715;BME280;39608;55.630;37.864;2023-02-22T18:18:37;99086.16;;;-10.35;55.89
53715;BME280;39608;55.630;37.864;2023-02-22T18:23:40;99090.78;;;-10.37;56.00
53715;BME280;39608;55.630;37.864;2023-02-22T18:28:43;99088.69;;;-10.42;55.74
53715;BME280;39608;55.630;37.864;2023-02-22T18:33:50;99108.00;;;-10.43;55.96
53715;BME280;39608;55.630;37.864;2023-02-22T18:38:53;99103.28;;;-10.47;55.87
53715;BME280;39608;55.630;37.864;2023-02-22T18:43:58;99126.19;;;-10.50;56.07
53715;BME280;39608;55.630;37.864;2023-02-22T18:49:02;99105.56;;;-10.53;55.88
53715;BME280;39608;55.630;37.864;2023-02-22T18:54:05;99110.19;;;-10.55;55.97
53715;BME280;39608;55.630;37.864;2023-02-22T18:59:09;99122.44;;;-10.55;56.12
53715;BME280;39608;55.630;37.864;2023-02-22T19:04:13;99100.09;;;-10.74;56.10
53715;BME280;39608;55.630;37.864;2023-02-22T19:09:17;99115.63;;;-10.73;55.88
53715;BME280;39608;55.630;37.864;2023-02-22T19:14:21;99135.72;;;-10.65;55.97
53715;BME280;39608;55.630;37.864;2023-02-22T19:19:23;99137.38;;;-10.72;56.12
53715;BME280;39608;55.630;37.864;2023-02-22T19:24:25;99135.56;;;-10.72;56.09
53715;BME280;39608;55.630;37.864;2023-02-22T19:29:29;99144.75;;;-10.76;56.00
53715;BME280;39608;55.630;37.864;2023-02-22T19:34:32;99135.94;;;-10.83;56.53
53715;BME280;39608;55.630;37.864;2023-02-22T19:39:35;99144.63;;;-10.82;56.29
53715;BME280;39608;55.630;37.864;2023-02-22T19:44:42;99139.22;;;-10.81;56.02
53715;BME280;39608;55.630;37.864;2023-02-22T19:49:44;99147.72;;;-10.87;56.61
53715;BME280;39608;55.630;37.864;2023-02-22T19:54:46;99149.19;;;-10.85;56.18
53715;BME280;39608;55.630;37.864;2023-02-22T19:59:50;99139.38;;;-10.82;56.24
53715;BME280;39608;55.630;37.864;2023-02-22T20:04:54;99153.97;;;-10.88;56.23
53715;BME280;39608;55.630;37.864;2023-02-22T20:09:56;99157.38;;;-10.88;56.56
53715;BME280;39608;55.630;37.864;2023-02-22T20:15:00;99161.94;;;-10.90;56.46
53715;BME280;39608;55.630;37.864;2023-02-22T20:20:06;99174.06;;;-10.89;56.45
53715;BME280;39608;55.630;37.864;2023-02-22T20:25:09;99168.53;;;-10.94;56.85
53715;BME280;39608;55.630;37.864;2023-02-22T20:30:13;99180.63;;;-10.93;56.37
53715;BME280;39608;55.630;37.864;2023-02-22T20:35:17;99172.94;;;-10.94;56.23
53715;BME280;39608;55.630;37.864;2023-02-22T20:40:20;99179.97;;;-10.95;56.64
53715;BME280;39608;55.630;37.864;2023-02-22T20:45:23;99187.84;;;-10.95;56.76
53715;BME280;39608;55.630;37.864;2023-02-22T20:50:25;99188.97;;;-10.97;56.50
53715;BME280;39608;55.630;37.864;2023-02-22T20:55:27;99194.22;;;-10.97;56.39
53715;BME280;39608;55.630;37.864;2023-02-22T21:00:31;99177.69;;;-11.06;56.86
53715;BME280;39608;55.630;37.864;2023-02-22T21:05:33;99186.34;;;-11.06;56.67
53715;BME280;39608;55.630;37.864;2023-02-22T21:10:39;99194.22;;;-11.06;56.52
53715;BME280;39608;55.630;37.864;2023-02-22T21:15:43;99207.28;;;-11.06;56.74
53715;BME280;39608;55.630;37.864;2023-02-22T21:20:47;99197.16;;;-11.17;56.96
53715;BME280;39608;55.630;37.864;2023-02-22T21:25:50;99219.88;;;-11.09;56.90
53715;BME280;39608;55.630;37.864;2023-02-22T21:30:54;99232.00;;;-11.08;56.61
53715;BME280;39608;55.630;37.864;2023-02-22T21:35:56;99222.50;;;-11.09;57.03
53715;BME280;39608;55.630;37.864;2023-02-22T21:41:04;99224.63;;;-11.13;56.86
53715;BME280;39608;55.630;37.864;2023-02-22T21:46:08;99225.44;;;-11.21;56.67
53715;BME280;39608;55.630;37.864;2023-02-22T21:51:13;99231.84;;;-11.23;56.59
53715;BME280;39608;55.630;37.864;2023-02-22T21:56:17;99216.44;;;-11.26;56.91
53715;BME280;39608;55.630;37.864;2023-02-22T22:01:22;99226.56;;;-11.31;57.02
53715;BME280;39608;55.630;37.864;2023-02-22T22:06:28;99239.34;;;-11.28;57.05
53715;BME280;39608;55.630;37.864;2023-02-22T22:11:31;99244.06;;;-11.32;56.91
53715;BME280;39608;55.630;37.864;2023-02-22T22:16:35;99246.03;;;-11.34;57.16
53715;BME280;39608;55.630;37.864;2023-02-22T22:21:37;99256.66;;;-11.36;56.92
53715;BME280;39608;55.630;37.864;2023-02-22T22:26:40;99259.44;;;-11.37;57.26
53715;BME280;39608;55.630;37.864;2023-02-22T22:31:44;99259.41;;;-11.45;57.30
53715;BME280;39608;55.630;37.864;2023-02-22T22:36:46;99260.91;;;-11.43;57.13
53715;BME280;39608;55.630;37.864;2023-02-22T22:41:49;99269.22;;;-11.39;56.92
53715;BME280;39608;55.630;37.864;2023-02-22T22:46:53;99284.13;;;-11.40;57.11
53715;BME280;39608;55.630;37.864;2023-02-22T22:51:54;99259.34;;;-11.62;57.25
53715;BME280;39608;55.630;37.864;2023-02-22T22:56:57;99274.44;;;-11.47;57.50
53715;BME280;39608;55.630;37.864;2023-02-22T23:02:01;99275.28;;;-11.47;57.28
53715;BME280;39608;55.630;37.864;2023-02-22T23:07:09;99266.91;;;-11.50;57.23
53715;BME280;39608;55.630;37.864;2023-02-22T23:12:13;99252.84;;;-11.49;57.08
53715;BME280;39608;55.630;37.864;2023-02-22T23:17:18;99273.59;;;-11.56;57.08
53715;BME280;39608;55.630;37.864;2023-02-22T23:22:30;99266.53;;;-11.64;57.33
53715;BME280;39608;55.630;37.864;2023-02-22T23:27:32;99255.38;;;-11.74;57.22
53715;BME280;39608;55.630;37.864;2023-02-22T23:32:35;99262.75;;;-11.70;57.42
53715;BME280;39608;55.630;37.864;2023-02-22T23:37:37;99282.91;;;-11.62;57.60
53715;BME280;39608;55.630;37.864;2023-02-22T23:42:39;99288.28;;;-11.63;57.67
53715;BME280;39608;55.630;37.864;2023-02-22T23:47:43;99294.00;;;-11.68;57.69
53715;BME280;39608;55.630;37.864;2023-02-22T23:52:52;99283.78;;;-11.79;57.99
53715;BME280;39608;55.630;37.864;2023-02-22T23:57:57;99302.97;;;-11.71;57.70
